Time;durP1;ratioP1;P1;durP2;ratioP2;P2;SDS_P1;SDS_P2;PMS_P1;PMS_P2;Temp;Humidity;BMP_temperature;BMP_pressure;BME280_temperature;BME280_humidity;BME280_pressure;Samples;Min_cycle;Max_cycle;Signal;HPM_P1;HPM_P2
2022/04/21 00:00:07;;;;;;;;;;;9.50;99.90;;;;;;5063484;28;20258;-78
2022/04/21 00:02:32;;;;;;;;;;;9.40;99.90;;;;;;5055840;28;19952;-79
2022/04/21 00:04:59;;;;;;;;;;;9.50;99.90;;;;;;5064420;28;19913;-83
2022/04/21 00:07:24;;;;;;;;;;;9.40;99.90;;;;;;5061662;28;19920;-75
2022/04/21 00:09:50;;;;;;;;;;;9.40;99.90;;;;;;5055675;28;20216;-80
2022/04/21 00:12:15;;;;;;;;;;;9.40;99.90;;;;;;5069064;28;19917;-75
2022/04/21 00:14:41;;;;;;;;;;;9.30;99.90;;;;;;5058442;28;19938;-78
2022/04/21 00:17:09;;;;;;;;;;;9.30;99.90;;;;;;5067943;28;19916;-79
2022/04/21 00:19:35;;;;;;;;;;;9.30;99.90;;;;;;5057800;28;20004;-78
2022/04/21 00:24:45;;;;;;;;;;;9.10;99.90;;;;;;5068195;28;19924;-79
2022/04/21 00:27:11;;;;;;;;;;;9.10;99.90;;;;;;5070227;28;20219;-79
2022/04/21 00:29:37;;;;;;;;;;;9.00;99.90;;;;;;5074078;28;20273;-77
2022/04/21 00:32:03;;;;;;;;;;;8.90;99.90;;;;;;5075202;28;19978;-76
2022/04/21 00:34:28;;;;;;;;;;;8.80;99.90;;;;;;5075271;28;20380;-79
2022/04/21 00:36:54;;;;;;;;;;;8.90;99.90;;;;;;5072607;28;19912;-76
2022/04/21 00:39:19;;;;;;;;;;;8.90;99.90;;;;;;5062361;28;19913;-75
2022/04/21 00:41:45;;;;;;;;;;;8.80;99.90;;;;;;5074203;28;20218;-76
2022/04/21 00:44:11;;;;;;;;;;;8.80;99.90;;;;;;5070073;28;19912;-76
2022/04/21 00:46:38;;;;;;;;;;;8.70;99.90;;;;;;5072371;28;19948;-79
2022/04/21 00:49:04;;;;;;;;;;;8.60;99.90;;;;;;5075565;28;19913;-78
2022/04/21 00:51:31;;;;;;;;;;;8.60;99.90;;;;;;5074854;28;19987;-78
2022/04/21 00:53:57;;;;;;;;;;;8.50;99.90;;;;;;5075393;28;19917;-81
2022/04/21 00:56:22;;;;;;;;;;;8.60;99.90;;;;;;5070629;28;20208;-75
2022/04/21 00:58:48;;;;;;;;;;;8.60;99.90;;;;;;5073020;28;19908;-77
2022/04/21 01:03:58;;;;;;;;;;;8.80;99.90;;;;;;5067688;28;20301;-77
2022/04/21 01:06:24;;;;;;;;;;;8.80;99.90;;;;;;5068735;28;19967;-76
2022/04/21 01:08:49;;;;;;;;;;;8.80;99.90;;;;;;5070504;28;19912;-77
2022/04/21 01:11:18;;;;;;;;;;;8.80;99.90;;;;;;5069323;28;19916;-79
2022/04/21 01:13:44;;;;;;;;;;;8.70;99.90;;;;;;5068090;28;19925;-76
2022/04/21 01:16:10;;;;;;;;;;;8.80;99.90;;;;;;5061937;28;20315;-77
2022/04/21 01:18:35;;;;;;;;;;;8.70;99.90;;;;;;5071265;28;19917;-78
2022/04/21 01:21:01;;;;;;;;;;;8.60;99.90;;;;;;5063844;28;20011;-76
2022/04/21 01:23:27;;;;;;;;;;;8.60;99.90;;;;;;5077388;28;19928;-76
2022/04/21 01:25:52;;;;;;;;;;;8.60;99.90;;;;;;5077514;28;20298;-77
2022/04/21 01:28:18;;;;;;;;;;;8.60;99.90;;;;;;5065343;28;20219;-77
2022/04/21 01:30:44;;;;;;;;;;;8.60;99.90;;;;;;5060011;28;19924;-76
2022/04/21 01:33:09;;;;;;;;;;;8.50;99.90;;;;;;5059267;28;19913;-76
2022/04/21 01:35:36;;;;;;;;;;;8.40;99.90;;;;;;5059167;28;19919;-76
2022/04/21 01:43:29;;;;;;;;;;;8.20;99.90;;;;;;5075900;28;19918;-76
2022/04/21 01:45:55;;;;;;;;;;;8.10;99.90;;;;;;5068510;28;19913;-75
2022/04/21 01:48:21;;;;;;;;;;;8.00;99.90;;;;;;5058974;28;19908;-76
2022/04/21 01:50:46;;;;;;;;;;;8.00;99.90;;;;;;5074148;28;19916;-76
2022/04/21 01:53:12;;;;;;;;;;;7.90;99.90;;;;;;5076599;28;19954;-76
2022/04/21 01:55:38;;;;;;;;;;;7.90;99.90;;;;;;5059989;28;19913;-76
2022/04/21 01:58:03;;;;;;;;;;;7.80;99.90;;;;;;5055925;28;20023;-75
2022/04/21 02:00:29;;;;;;;;;;;7.80;99.90;;;;;;5072828;28;20011;-76
2022/04/21 02:02:55;;;;;;;;;;;7.80;99.90;;;;;;5072901;28;19935;-76
2022/04/21 02:05:20;;;;;;;;;;;7.70;99.90;;;;;;5074156;28;19913;-77
2022/04/21 02:07:46;;;;;;;;;;;7.80;99.90;;;;;;5077252;28;19916;-77
2022/04/21 02:10:13;;;;;;;;;;;7.80;99.90;;;;;;5076786;28;20334;-76
2022/04/21 02:12:39;;;;;;;;;;;7.80;99.90;;;;;;5075265;28;19920;-76
2022/04/21 02:15:06;;;;;;;;;;;7.90;99.90;;;;;;5077292;28;19916;-76
2022/04/21 02:17:33;;;;;;;;;;;7.80;99.90;;;;;;5070217;28;19996;-76
2022/04/21 02:19:59;;;;;;;;;;;7.80;99.90;;;;;;5076778;28;19912;-76
2022/04/21 02:22:25;;;;;;;;;;;7.80;99.90;;;;;;5075668;28;19951;-75
2022/04/21 02:24:50;;;;;;;;;;;7.70;99.90;;;;;;5077480;28;20001;-75
2022/04/21 02:27:16;;;;;;;;;;;7.70;99.90;;;;;;5076417;28;19955;-76
2022/04/21 02:29:41;;;;;;;;;;;7.60;99.90;;;;;;5075908;28;19944;-77
2022/04/21 02:32:07;;;;;;;;;;;7.60;99.90;;;;;;5058862;28;19913;-76
2022/04/21 02:34:33;;;;;;;;;;;7.60;99.90;;;;;;5064052;28;20236;-78
2022/04/21 02:36:58;;;;;;;;;;;7.70;99.90;;;;;;5078163;28;20205;-76
2022/04/21 02:39:27;;;;;;;;;;;7.80;99.90;;;;;;5073011;28;20011;-74
2022/04/21 02:41:53;;;;;;;;;;;7.80;99.90;;;;;;5061249;28;20262;-76
2022/04/21 02:44:18;;;;;;;;;;;7.80;99.90;;;;;;5065073;28;19913;-76
2022/04/21 02:46:44;;;;;;;;;;;7.90;99.90;;;;;;5077024;28;20321;-75
2022/04/21 02:49:10;;;;;;;;;;;7.80;99.90;;;;;;5071727;28;19928;-76
2022/04/21 02:51:35;;;;;;;;;;;7.80;99.90;;;;;;5073508;28;19952;-75
2022/04/21 02:59:29;;;;;;;;;;;7.80;99.90;;;;;;5074671;28;19962;-76
2022/04/21 03:01:55;;;;;;;;;;;7.80;99.90;;;;;;5075716;28;19917;-75
2022/04/21 03:04:20;;;;;;;;;;;7.70;99.90;;;;;;5076808;28;19917;-75
2022/04/21 03:06:46;;;;;;;;;;;7.60;99.90;;;;;;5077788;28;19940;-75
2022/04/21 03:09:12;;;;;;;;;;;7.50;99.90;;;;;;5074938;28;19920;-75
2022/04/21 03:11:37;;;;;;;;;;;7.40;99.90;;;;;;5071730;28;19962;-75
2022/04/21 03:14:03;;;;;;;;;;;7.40;99.90;;;;;;5074514;28;19979;-75
2022/04/21 03:16:28;;;;;;;;;;;7.40;99.90;;;;;;5076295;28;20234;-75
2022/04/21 03:18:54;;;;;;;;;;;7.40;99.90;;;;;;5070008;28;19955;-74
2022/04/21 03:24:20;;;;;;;;;;;7.30;99.90;;;;;;5059527;28;19987;-75
2022/04/21 03:26:46;;;;;;;;;;;7.20;99.90;;;;;;5077074;28;19909;-76
2022/04/21 03:29:12;;;;;;;;;;;7.20;99.90;;;;;;5072121;28;19923;-75
2022/04/21 03:31:37;;;;;;;;;;;7.20;99.90;;;;;;5073794;28;19916;-75
2022/04/21 03:34:05;;;;;;;;;;;7.20;99.90;;;;;;5073444;28;19962;-75
2022/04/21 03:36:31;;;;;;;;;;;7.10;99.90;;;;;;5075126;28;19948;-75
2022/04/21 03:38:57;;;;;;;;;;;7.10;99.90;;;;;;5073675;28;19947;-77
2022/04/21 03:41:22;;;;;;;;;;;7.00;99.90;;;;;;5057028;28;19941;-75
2022/04/21 03:43:48;;;;;;;;;;;7.00;99.90;;;;;;5072060;28;20219;-75
2022/04/21 03:46:14;;;;;;;;;;;7.00;99.90;;;;;;5077036;28;19920;-74
2022/04/21 03:48:39;;;;;;;;;;;7.00;99.90;;;;;;5071691;28;20354;-75
2022/04/21 03:51:05;;;;;;;;;;;6.90;99.90;;;;;;5068323;28;20330;-75
2022/04/21 03:53:31;;;;;;;;;;;6.80;99.90;;;;;;5070594;28;20349;-75
2022/04/21 03:55:57;;;;;;;;;;;6.80;99.90;;;;;;5076415;28;19921;-76
2022/04/21 03:58:22;;;;;;;;;;;6.70;99.90;;;;;;5064530;28;19908;-75
2022/04/21 04:00:48;;;;;;;;;;;6.40;99.90;;;;;;5073724;28;19912;-75
2022/04/21 04:03:14;;;;;;;;;;;6.10;99.90;;;;;;5074886;28;20219;-75
2022/04/21 04:05:40;;;;;;;;;;;6.10;99.90;;;;;;5064886;28;20243;-76
2022/04/21 04:10:52;;;;;;;;;;;5.90;99.90;;;;;;5064916;28;20058;-75
2022/04/21 04:13:24;;;;;;;;;;;5.80;99.90;;;;;;5075261;28;19912;-74
2022/04/21 04:15:51;;;;;;;;;;;5.70;99.90;;;;;;5069617;28;19939;-76
2022/04/21 04:18:18;;;;;;;;;;;5.60;99.90;;;;;;5068039;28;20037;-76
2022/04/21 04:20:44;;;;;;;;;;;5.50;99.90;;;;;;5069033;28;19924;-76
2022/04/21 04:23:09;;;;;;;;;;;5.50;99.90;;;;;;5070151;28;19913;-76
2022/04/21 04:25:35;;;;;;;;;;;5.50;99.90;;;;;;5074195;28;19940;-75
2022/04/21 04:28:03;;;;;;;;;;;5.50;99.90;;;;;;5075018;28;19999;-75
2022/04/21 04:30:29;;;;;;;;;;;5.40;99.90;;;;;;5074734;28;20200;-76
2022/04/21 04:32:54;;;;;;;;;;;5.40;99.90;;;;;;5072202;28;19920;-75
2022/04/21 04:35:21;;;;;;;;;;;5.30;99.90;;;;;;5066330;28;19974;-75
2022/04/21 04:37:46;;;;;;;;;;;5.30;99.90;;;;;;5062320;28;19916;-73
2022/04/21 04:40:13;;;;;;;;;;;5.40;99.90;;;;;;5075567;28;19962;-75
2022/04/21 04:42:38;;;;;;;;;;;5.30;99.90;;;;;;5065879;28;19909;-75
2022/04/21 04:47:48;;;;;;;;;;;5.50;99.90;;;;;;5072923;28;19920;-75
2022/04/21 04:50:14;;;;;;;;;;;5.70;99.90;;;;;;5076019;28;19912;-74
2022/04/21 04:52:39;;;;;;;;;;;5.90;99.90;;;;;;5070254;28;19909;-74
2022/04/21 04:55:09;;;;;;;;;;;6.50;99.90;;;;;;5066096;28;19920;-79
2022/04/21 04:57:35;;;;;;;;;;;6.90;99.90;;;;;;5058625;28;19964;-74
2022/04/21 05:00:01;;;;;;;;;;;7.00;99.90;;;;;;5073806;28;20325;-75
2022/04/21 05:02:26;;;;;;;;;;;7.00;99.90;;;;;;5071906;28;20003;-74
2022/04/21 05:04:52;;;;;;;;;;;7.00;99.90;;;;;;5070581;28;19991;-75
2022/04/21 05:07:18;;;;;;;;;;;7.00;99.90;;;;;;5072843;28;19908;-75
2022/04/21 05:09:43;;;;;;;;;;;7.10;99.90;;;;;;5071470;28;19974;-73
2022/04/21 05:12:09;;;;;;;;;;;7.30;99.90;;;;;;5072386;28;19916;-74
2022/04/21 05:14:36;;;;;;;;;;;7.40;99.90;;;;;;5068191;28;19919;-72
2022/04/21 05:17:01;;;;;;;;;;;7.50;99.90;;;;;;5069516;28;19966;-75
2022/04/21 05:19:27;;;;;;;;;;;7.60;99.90;;;;;;5072749;28;19944;-76
2022/04/21 05:21:53;;;;;;;;;;;7.70;99.90;;;;;;5073622;28;19912;-75
2022/04/21 05:24:19;;;;;;;;;;;7.80;99.90;;;;;;5068733;28;20290;-74
2022/04/21 05:26:45;;;;;;;;;;;8.00;99.90;;;;;;5070753;28;19966;-75
2022/04/21 05:31:59;;;;;;;;;;;8.10;99.90;;;;;;5072782;28;19958;-76
2022/04/21 05:34:26;;;;;;;;;;;8.20;99.90;;;;;;5067720;28;19948;-75
2022/04/21 05:36:51;;;;;;;;;;;8.30;99.90;;;;;;5074291;28;19917;-76
2022/04/21 05:39:17;;;;;;;;;;;8.40;99.90;;;;;;5069460;28;19922;-75
2022/04/21 05:41:44;;;;;;;;;;;8.40;99.90;;;;;;5073396;28;20003;-76
2022/04/21 05:44:10;;;;;;;;;;;8.50;99.90;;;;;;5067899;28;19915;-74
2022/04/21 05:46:36;;;;;;;;;;;8.60;99.90;;;;;;5072980;28;19924;-76
2022/04/21 05:49:01;;;;;;;;;;;8.60;99.90;;;;;;5061767;28;19912;-75
2022/04/21 05:51:27;;;;;;;;;;;8.70;99.90;;;;;;5060528;28;19912;-73
2022/04/21 05:53:53;;;;;;;;;;;8.70;99.90;;;;;;5054173;28;20299;-78
2022/04/21 05:56:18;;;;;;;;;;;8.80;99.90;;;;;;5068217;28;19916;-74
2022/04/21 05:58:44;;;;;;;;;;;8.80;99.90;;;;;;5070969;28;19956;-74
2022/04/21 06:01:10;;;;;;;;;;;8.80;99.90;;;;;;5072868;28;20299;-80
2022/04/21 06:03:37;;;;;;;;;;;8.80;99.90;;;;;;5066137;28;19920;-76
2022/04/21 06:06:03;;;;;;;;;;;8.90;99.90;;;;;;5072229;28;19920;-76
2022/04/21 06:08:29;;;;;;;;;;;9.00;99.90;;;;;;5066013;28;19963;-79
2022/04/21 06:10:57;;;;;;;;;;;9.00;99.90;;;;;;5075296;28;19964;-75
2022/04/21 06:13:24;;;;;;;;;;;9.10;99.90;;;;;;5067848;28;19947;-75
2022/04/21 06:15:49;;;;;;;;;;;9.10;99.90;;;;;;5076391;28;20256;-74
2022/04/21 06:18:15;;;;;;;;;;;9.20;99.90;;;;;;5076248;28;19917;-78
2022/04/21 06:20:41;;;;;;;;;;;9.20;99.90;;;;;;5059456;28;19913;-76
2022/04/21 06:23:06;;;;;;;;;;;9.30;99.90;;;;;;5075347;28;19932;-80
2022/04/21 06:25:32;;;;;;;;;;;9.30;99.90;;;;;;5075871;28;20308;-77
2022/04/21 06:27:57;;;;;;;;;;;9.40;99.90;;;;;;5076375;28;19920;-79
2022/04/21 06:30:24;;;;;;;;;;;9.50;99.90;;;;;;5076819;28;20014;-77
2022/04/21 06:32:49;;;;;;;;;;;9.50;99.90;;;;;;5064247;28;19913;-79
2022/04/21 06:35:15;;;;;;;;;;;9.50;99.90;;;;;;5073081;28;20003;-80
2022/04/21 06:37:42;;;;;;;;;;;9.50;99.90;;;;;;5073155;28;19920;-79
2022/04/21 06:40:08;;;;;;;;;;;9.50;99.90;;;;;;5075859;28;20321;-74
2022/04/21 06:42:35;;;;;;;;;;;9.60;99.90;;;;;;5075589;28;19955;-74
2022/04/21 06:48:04;;;;;;;;;;;9.70;99.90;;;;;;5070228;28;19935;-78
2022/04/21 06:50:34;;;;;;;;;;;9.60;99.90;;;;;;5068785;28;19969;-80
2022/04/21 06:53:03;;;;;;;;;;;9.70;99.90;;;;;;5074424;28;19912;-78
2022/04/21 06:55:29;;;;;;;;;;;9.80;99.90;;;;;;5062708;28;19925;-78
2022/04/21 06:57:55;;;;;;;;;;;9.80;99.90;;;;;;5065191;28;19913;-74
2022/04/21 07:00:22;;;;;;;;;;;9.90;99.90;;;;;;5071406;28;20418;-78
2022/04/21 07:02:50;;;;;;;;;;;9.80;99.90;;;;;;5075490;28;20008;-75
2022/04/21 07:05:17;;;;;;;;;;;10.00;99.90;;;;;;5064901;28;19973;-77
2022/04/21 07:07:43;;;;;;;;;;;10.00;99.90;;;;;;5072956;28;19912;-79
2022/04/21 07:10:10;;;;;;;;;;;10.10;99.90;;;;;;5075997;28;20319;-78
2022/04/21 07:12:35;;;;;;;;;;;10.40;99.90;;;;;;5075536;28;19916;-78
2022/04/21 07:15:02;;;;;;;;;;;10.70;99.90;;;;;;5071282;28;19924;-75
2022/04/21 07:17:28;;;;;;;;;;;10.90;99.90;;;;;;5072053;28;20311;-78
2022/04/21 07:19:54;;;;;;;;;;;11.20;99.90;;;;;;5070203;28;19947;-77
2022/04/21 07:22:20;;;;;;;;;;;11.30;99.90;;;;;;5070735;28;20007;-75
2022/04/21 07:24:46;;;;;;;;;;;11.50;99.90;;;;;;5061162;28;20287;-79
2022/04/21 07:27:12;;;;;;;;;;;11.70;99.90;;;;;;5069806;28;20262;-77
2022/04/21 07:29:37;;;;;;;;;;;11.70;99.90;;;;;;5065015;28;19991;-80
2022/04/21 07:32:04;;;;;;;;;;;11.70;99.90;;;;;;5059043;28;20027;-78
2022/04/21 07:34:29;;;;;;;;;;;12.00;99.90;;;;;;5069475;28;20288;-77
2022/04/21 07:36:55;;;;;;;;;;;12.50;99.90;;;;;;5072475;28;19924;-76
2022/04/21 07:39:20;;;;;;;;;;;12.50;99.90;;;;;;5075955;28;19912;-79
2022/04/21 07:41:46;;;;;;;;;;;12.60;99.90;;;;;;5072156;28;19923;-75
2022/04/21 07:44:12;;;;;;;;;;;12.30;99.90;;;;;;5056635;28;19959;-78
2022/04/21 07:46:37;;;;;;;;;;;12.00;99.90;;;;;;5074091;28;19951;-76
2022/04/21 07:51:47;;;;;;;;;;;12.20;99.90;;;;;;5071448;28;19969;-74
2022/04/21 07:54:12;;;;;;;;;;;12.00;99.90;;;;;;5072345;28;20260;-76
2022/04/21 07:56:38;;;;;;;;;;;12.00;99.90;;;;;;5073705;28;19920;-78
2022/04/21 07:59:03;;;;;;;;;;;12.20;99.90;;;;;;5074095;28;19921;-76
2022/04/21 08:01:29;;;;;;;;;;;12.50;99.90;;;;;;5074679;28;19923;-79
2022/04/21 08:03:55;;;;;;;;;;;12.40;99.90;;;;;;5069885;28;19908;-79
2022/04/21 08:06:20;;;;;;;;;;;12.60;99.90;;;;;;5074615;28;19912;-79
2022/04/21 08:08:46;;;;;;;;;;;12.60;99.90;;;;;;5074425;28;20168;-79
2022/04/21 08:11:12;;;;;;;;;;;12.70;99.90;;;;;;5073785;28;19923;-77
2022/04/21 08:13:38;;;;;;;;;;;13.00;99.90;;;;;;5070324;28;19916;-77
2022/04/21 08:16:03;;;;;;;;;;;13.10;99.90;;;;;;5074059;28;19927;-78
2022/04/21 08:18:29;;;;;;;;;;;13.30;99.90;;;;;;5054987;28;20329;-77
2022/04/21 08:20:58;;;;;;;;;;;13.40;99.90;;;;;;5073320;28;19912;-77
2022/04/21 08:23:26;;;;;;;;;;;13.20;99.90;;;;;;5074047;28;20334;-77
2022/04/21 08:34:05;;;;;;;;;;;13.70;99.90;;;;;;5061180;28;20310;-77
2022/04/21 08:36:30;;;;;;;;;;;13.50;99.90;;;;;;5075593;28;19995;-75
2022/04/21 08:38:56;;;;;;;;;;;13.40;99.90;;;;;;5072393;28;19918;-75
2022/04/21 08:41:26;;;;;;;;;;;13.50;99.90;;;;;;5040894;28;19920;-75
2022/04/21 08:43:52;;;;;;;;;;;13.80;99.90;;;;;;5072910;28;19923;-76
2022/04/21 08:46:20;;;;;;;;;;;14.00;99.90;;;;;;5070017;28;20282;-78
2022/04/21 08:48:47;;;;;;;;;;;14.30;99.90;;;;;;5072591;28;19916;-75
2022/04/21 08:51:13;;;;;;;;;;;14.50;99.90;;;;;;5070084;28;19916;-78
2022/04/21 08:53:40;;;;;;;;;;;14.40;99.20;;;;;;5073184;28;19912;-79
2022/04/21 08:56:05;;;;;;;;;;;14.40;99.30;;;;;;5070121;28;20303;-79
2022/04/21 08:58:31;;;;;;;;;;;14.30;99.90;;;;;;5075211;28;20046;-77
2022/04/21 09:00:57;;;;;;;;;;;14.40;99.50;;;;;;5068537;28;20030;-76
2022/04/21 09:03:23;;;;;;;;;;;14.40;98.50;;;;;;5073862;28;19913;-83
2022/04/21 09:05:49;;;;;;;;;;;14.40;99.90;;;;;;5071369;28;19923;-77
2022/04/21 09:08:19;;;;;;;;;;;14.30;98.60;;;;;;5071306;28;19919;-79
2022/04/21 09:10:44;;;;;;;;;;;14.30;97.80;;;;;;5072663;28;20020;-78
2022/04/21 09:13:10;;;;;;;;;;;14.40;99.00;;;;;;5056466;28;20005;-76
2022/04/21 09:15:43;;;;;;;;;;;14.50;97.90;;;;;;5063764;28;19920;-79
2022/04/21 09:18:13;;;;;;;;;;;14.60;98.00;;;;;;5073812;28;19912;-80
2022/04/21 09:20:41;;;;;;;;;;;14.80;97.30;;;;;;5070459;28;19959;-74
2022/04/21 09:23:08;;;;;;;;;;;15.00;97.70;;;;;;5068449;28;19954;-75
2022/04/21 09:25:44;;;;;;;;;;;15.10;96.00;;;;;;5059518;28;19923;-74
2022/04/21 09:28:22;;;;;;;;;;;15.10;96.10;;;;;;5062973;28;19999;-74
2022/04/21 09:30:49;;;;;;;;;;;15.20;97.30;;;;;;5066479;28;20034;-74
2022/04/21 09:33:25;;;;;;;;;;;15.30;95.70;;;;;;5066371;28;20506;-75
2022/04/21 09:35:50;;;;;;;;;;;15.40;95.80;;;;;;5074713;28;19983;-78
2022/04/21 09:38:18;;;;;;;;;;;15.50;95.40;;;;;;5066676;28;19920;-75
2022/04/21 09:40:44;;;;;;;;;;;15.40;93.70;;;;;;5062688;28;19913;-81
2022/04/21 09:43:10;;;;;;;;;;;15.30;95.30;;;;;;5067940;28;19913;-76
2022/04/21 09:48:21;;;;;;;;;;;15.20;93.90;;;;;;5071265;28;20345;-73
2022/04/21 09:50:51;;;;;;;;;;;15.10;95.50;;;;;;5066844;28;20005;-74
2022/04/21 09:53:19;;;;;;;;;;;15.20;93.90;;;;;;5076985;28;20223;-74
2022/04/21 09:55:45;;;;;;;;;;;15.30;94.60;;;;;;5076041;28;19916;-75
2022/04/21 09:58:12;;;;;;;;;;;15.30;94.80;;;;;;5073806;28;20274;-74
2022/04/21 10:00:38;;;;;;;;;;;15.30;95.30;;;;;;5073480;28;19913;-75
2022/04/21 10:03:04;;;;;;;;;;;15.30;93.30;;;;;;5076660;28;19912;-82
2022/04/21 10:05:31;;;;;;;;;;;15.40;95.30;;;;;;5073186;28;20200;-73
2022/04/21 10:07:59;;;;;;;;;;;15.60;95.00;;;;;;5069795;28;19920;-74
2022/04/21 10:10:26;;;;;;;;;;;15.40;94.20;;;;;;5074926;28;19931;-74
2022/04/21 10:12:54;;;;;;;;;;;15.40;94.20;;;;;;5077722;28;20244;-74
2022/04/21 10:15:19;;;;;;;;;;;15.80;94.40;;;;;;5072269;28;19931;-75
2022/04/21 10:17:45;;;;;;;;;;;15.50;93.30;;;;;;5072685;28;19912;-74
2022/04/21 10:20:10;;;;;;;;;;;15.60;94.80;;;;;;5075608;28;20543;-75
2022/04/21 10:22:36;;;;;;;;;;;15.70;93.00;;;;;;5054745;28;20220;-74
2022/04/21 10:25:03;;;;;;;;;;;15.40;91.70;;;;;;5076420;28;19912;-74
2022/04/21 10:27:39;;;;;;;;;;;15.50;93.70;;;;;;5073045;28;20349;-74
2022/04/21 10:30:15;;;;;;;;;;;15.70;94.00;;;;;;5076913;28;19917;-74
2022/04/21 10:32:48;;;;;;;;;;;16.00;94.20;;;;;;5074912;28;19970;-74
2022/04/21 10:35:17;;;;;;;;;;;16.20;93.20;;;;;;5065850;28;20030;-75
2022/04/21 10:37:43;;;;;;;;;;;16.50;94.10;;;;;;5067554;28;19917;-75
2022/04/21 10:40:10;;;;;;;;;;;16.70;91.60;;;;;;5075634;28;19921;-74
2022/04/21 10:42:55;;;;;;;;;;;16.80;92.60;;;;;;5062575;28;20319;-74
2022/04/21 10:45:41;;;;;;;;;;;16.70;92.10;;;;;;5074800;28;19939;-75
2022/04/21 10:48:12;;;;;;;;;;;16.60;92.40;;;;;;5071005;28;19920;-74
2022/04/21 10:50:38;;;;;;;;;;;16.30;92.10;;;;;;5070815;28;19913;-74
2022/04/21 10:58:35;;;;;;;;;;;16.60;92.50;;;;;;5063958;28;19923;-74
2022/04/21 11:01:19;;;;;;;;;;;16.40;93.30;;;;;;5075211;28;19909;-74
2022/04/21 11:03:46;;;;;;;;;;;16.20;92.30;;;;;;5075265;28;19935;-74
2022/04/21 11:06:13;;;;;;;;;;;16.50;93.80;;;;;;5074894;28;19916;-79
2022/04/21 11:08:38;;;;;;;;;;;16.60;91.20;;;;;;5041418;28;20334;-74
2022/04/21 11:11:04;;;;;;;;;;;16.30;92.00;;;;;;5069440;28;19921;-75
2022/04/21 11:13:49;;;;;;;;;;;16.30;91.80;;;;;;5072754;28;19927;-74
2022/04/21 11:16:34;;;;;;;;;;;16.40;93.60;;;;;;5073938;28;19956;-74
2022/04/21 11:19:22;;;;;;;;;;;16.40;91.40;;;;;;5071286;28;19959;-74
2022/04/21 11:21:52;;;;;;;;;;;16.40;92.90;;;;;;5074008;28;19920;-74
2022/04/21 11:24:18;;;;;;;;;;;16.40;93.30;;;;;;5070782;28;20311;-73
2022/04/21 11:26:43;;;;;;;;;;;16.50;92.00;;;;;;5074352;28;19917;-76
2022/04/21 11:29:09;;;;;;;;;;;16.40;90.90;;;;;;5071653;28;20011;-77
2022/04/21 11:31:35;;;;;;;;;;;16.50;92.00;;;;;;5074412;28;19909;-74
2022/04/21 11:34:01;;;;;;;;;;;16.50;91.50;;;;;;5072775;28;19938;-74
2022/04/21 11:36:38;;;;;;;;;;;16.60;91.00;;;;;;5071417;28;20004;-75
2022/04/21 11:39:12;;;;;;;;;;;16.90;91.20;;;;;;5071343;28;19960;-75
2022/04/21 11:41:41;;;;;;;;;;;16.90;92.10;;;;;;5073210;28;19920;-74
2022/04/21 11:44:07;;;;;;;;;;;17.00;92.00;;;;;;5068481;28;19970;-75
2022/04/21 11:46:36;;;;;;;;;;;17.00;90.90;;;;;;5074462;28;19908;-74
2022/04/21 11:49:03;;;;;;;;;;;16.90;91.90;;;;;;5069822;28;21838;-75
2022/04/21 11:51:29;;;;;;;;;;;17.00;92.20;;;;;;5069324;28;19920;-74
2022/04/21 11:53:55;;;;;;;;;;;16.60;89.30;;;;;;5073928;28;19924;-76
2022/04/21 11:56:21;;;;;;;;;;;16.70;91.60;;;;;;5058989;28;19917;-75
2022/04/21 11:58:48;;;;;;;;;;;16.70;90.30;;;;;;5071764;28;19921;-74
2022/04/21 12:06:50;;;;;;;;;;;17.40;90.80;;;;;;5074880;28;19966;-76
2022/04/21 12:09:36;;;;;;;;;;;17.20;87.70;;;;;;5069140;28;20584;-74
2022/04/21 12:12:02;;;;;;;;;;;17.20;91.10;;;;;;5087498;28;19921;-74
2022/04/21 12:14:29;;;;;;;;;;;17.10;90.20;;;;;;5070685;28;20300;-80
2022/04/21 12:16:56;;;;;;;;;;;17.30;92.00;;;;;;5071106;28;19974;-75
2022/04/21 12:19:40;;;;;;;;;;;17.20;90.40;;;;;;5070996;28;19958;-73
2022/04/21 12:22:09;;;;;;;;;;;17.40;88.00;;;;;;5073713;28;19990;-75
2022/04/21 12:24:45;;;;;;;;;;;17.70;90.40;;;;;;5063713;28;20339;-75
2022/04/21 12:27:11;;;;;;;;;;;17.90;89.00;;;;;;5062918;28;19917;-74
2022/04/21 12:29:48;;;;;;;;;;;17.80;87.70;;;;;;5070209;28;20219;-74
2022/04/21 12:32:19;;;;;;;;;;;17.80;85.70;;;;;;5068601;28;20257;-74
2022/04/21 12:34:44;;;;;;;;;;;17.70;88.30;;;;;;5069999;28;20259;-75
2022/04/21 12:37:10;;;;;;;;;;;17.40;87.30;;;;;;5059363;28;20008;-75
2022/04/21 12:39:36;;;;;;;;;;;17.30;87.90;;;;;;5067592;28;19920;-74
2022/04/21 12:42:03;;;;;;;;;;;17.40;87.80;;;;;;5072023;28;19930;-74
2022/04/21 12:44:29;;;;;;;;;;;17.40;89.90;;;;;;5065356;28;20014;-74
2022/04/21 12:47:12;;;;;;;;;;;17.70;90.00;;;;;;5071500;28;19955;-75
2022/04/21 12:49:48;;;;;;;;;;;18.00;89.30;;;;;;5070732;28;21652;-74
2022/04/21 12:52:14;;;;;;;;;;;17.70;88.60;;;;;;5062618;28;19913;-75
2022/04/21 12:54:39;;;;;;;;;;;17.30;83.90;;;;;;5070761;28;19923;-74
2022/04/21 12:57:06;;;;;;;;;;;17.20;84.80;;;;;;5069318;28;19919;-74
2022/04/21 12:59:32;;;;;;;;;;;17.40;89.20;;;;;;5072192;28;19916;-75
2022/04/21 13:01:57;;;;;;;;;;;17.40;86.40;;;;;;5067496;28;19912;-74
2022/04/21 13:04:23;;;;;;;;;;;17.50;87.50;;;;;;5071653;28;20302;-73
2022/04/21 13:06:49;;;;;;;;;;;17.60;88.40;;;;;;5076005;28;20207;-74
2022/04/21 13:09:14;;;;;;;;;;;17.70;85.40;;;;;;5060692;28;19917;-77
2022/04/21 13:11:40;;;;;;;;;;;17.70;86.80;;;;;;5059012;28;19920;-74
2022/04/21 13:14:05;;;;;;;;;;;17.90;86.40;;;;;;5068992;28;19917;-74
2022/04/21 13:16:31;;;;;;;;;;;17.90;84.60;;;;;;5071984;28;19946;-74
2022/04/21 13:18:57;;;;;;;;;;;17.80;86.10;;;;;;5069686;28;19916;-84
2022/04/21 13:24:07;;;;;;;;;;;17.90;82.50;;;;;;5074567;28;20471;-74
2022/04/21 13:26:33;;;;;;;;;;;17.70;83.40;;;;;;5077041;28;20008;-75
2022/04/21 13:28:59;;;;;;;;;;;17.70;82.90;;;;;;5075734;28;20339;-74
2022/04/21 13:34:09;;;;;;;;;;;17.60;85.40;;;;;;5075141;28;19919;-73
2022/04/21 13:36:37;;;;;;;;;;;17.70;84.10;;;;;;5076195;28;19916;-75
2022/04/21 13:39:02;;;;;;;;;;;17.80;85.60;;;;;;5075658;28;19920;-75
2022/04/21 13:41:28;;;;;;;;;;;17.80;85.00;;;;;;5067177;28;19916;-74
2022/04/21 13:43:53;;;;;;;;;;;17.90;85.80;;;;;;5068447;28;19920;-74
2022/04/21 13:46:19;;;;;;;;;;;17.90;87.50;;;;;;5076777;28;19920;-73
2022/04/21 13:48:44;;;;;;;;;;;18.00;82.50;;;;;;5076681;28;19924;-74
2022/04/21 13:51:10;;;;;;;;;;;18.00;86.80;;;;;;5072437;28;19912;-74
2022/04/21 13:53:36;;;;;;;;;;;18.20;82.10;;;;;;5075104;28;20016;-73
2022/04/21 13:56:06;;;;;;;;;;;18.00;77.50;;;;;;5072437;28;20252;-74
2022/04/21 13:58:32;;;;;;;;;;;18.10;84.20;;;;;;5077297;28;19916;-74
2022/04/21 14:00:57;;;;;;;;;;;18.10;81.80;;;;;;5073775;28;19927;-73
2022/04/21 14:03:23;;;;;;;;;;;18.10;87.30;;;;;;5077602;28;19908;-74
2022/04/21 14:05:49;;;;;;;;;;;18.30;83.60;;;;;;5070081;28;19928;-74
2022/04/21 14:08:15;;;;;;;;;;;18.00;81.50;;;;;;5073690;28;20357;-76
2022/04/21 14:10:42;;;;;;;;;;;17.90;83.70;;;;;;5074310;28;19928;-81
2022/04/21 14:13:07;;;;;;;;;;;17.90;84.00;;;;;;5076823;28;19912;-74
2022/04/21 14:15:34;;;;;;;;;;;17.80;84.20;;;;;;5075797;28;19927;-73
2022/04/21 14:18:00;;;;;;;;;;;17.70;86.10;;;;;;5072930;28;19912;-74
2022/04/21 14:20:25;;;;;;;;;;;17.70;85.70;;;;;;5074745;28;20065;-74
2022/04/21 14:22:51;;;;;;;;;;;17.70;86.60;;;;;;5071928;28;19938;-73
2022/04/21 14:25:17;;;;;;;;;;;18.00;89.90;;;;;;5059402;28;19920;-73
2022/04/21 14:27:43;;;;;;;;;;;18.10;86.70;;;;;;5069931;28;19908;-74
2022/04/21 14:30:09;;;;;;;;;;;18.10;87.50;;;;;;5077217;28;20218;-84
2022/04/21 14:32:35;;;;;;;;;;;18.20;86.40;;;;;;5066183;28;19916;-74
2022/04/21 14:35:02;;;;;;;;;;;18.00;87.80;;;;;;5075251;28;19923;-74
2022/04/21 14:45:42;;;;;;;;;;;17.80;88.10;;;;;;5062480;28;19927;-74
2022/04/21 14:48:08;;;;;;;;;;;17.90;89.10;;;;;;5072771;28;19920;-79
2022/04/21 14:50:33;;;;;;;;;;;17.80;88.80;;;;;;5075209;28;19909;-74
2022/04/21 14:52:59;;;;;;;;;;;17.70;90.40;;;;;;5066337;28;20315;-74
2022/04/21 14:55:24;;;;;;;;;;;17.70;90.80;;;;;;5072930;28;19985;-73
2022/04/21 14:57:50;;;;;;;;;;;17.90;90.90;;;;;;5072779;28;19920;-73
2022/04/21 15:00:16;;;;;;;;;;;18.00;88.30;;;;;;5070735;28;20003;-71
2022/04/21 15:02:42;;;;;;;;;;;18.00;89.90;;;;;;5075873;28;20219;-74
2022/04/21 15:05:07;;;;;;;;;;;18.00;89.90;;;;;;5074598;28;19913;-74
2022/04/21 15:07:33;;;;;;;;;;;18.20;90.00;;;;;;5075531;28;19912;-73
2022/04/21 15:09:58;;;;;;;;;;;18.20;88.70;;;;;;5076845;28;19920;-74
2022/04/21 15:12:24;;;;;;;;;;;18.40;89.70;;;;;;5076147;28;19921;-80
2022/04/21 15:14:50;;;;;;;;;;;18.40;91.30;;;;;;5074589;28;19962;-74
2022/04/21 15:17:16;;;;;;;;;;;18.50;89.30;;;;;;5075076;28;19912;-73
2022/04/21 15:19:46;;;;;;;;;;;18.60;90.20;;;;;;5075766;28;19940;-73
2022/04/21 15:22:12;;;;;;;;;;;18.30;88.00;;;;;;5074800;28;19947;-74
2022/04/21 15:24:38;;;;;;;;;;;18.10;88.60;;;;;;5069739;28;19951;-74
2022/04/21 15:27:03;;;;;;;;;;;18.10;90.80;;;;;;5074538;28;19912;-73
2022/04/21 15:29:29;;;;;;;;;;;18.10;91.20;;;;;;5075377;28;19908;-73